createdAt,value
2023-04-09T00:02:25.233Z,77.88
2023-04-09T00:04:53.496Z,78.88
2023-04-09T00:07:21.717Z,77.82
2023-04-09T00:09:49.884Z,78.83
2023-04-09T00:12:19.872Z,78.80
2023-04-09T00:14:51.200Z,80.01
2023-04-09T00:17:23.406Z,79.93
2023-04-09T00:19:53.335Z,79.45
2023-04-09T00:22:22.714Z,79.62
2023-04-09T00:24:52.831Z,79.89
2023-04-09T00:27:23.117Z,79.99
2023-04-09T00:29:56.295Z,80.34
2023-04-09T00:32:27.588Z,79.61
2023-04-09T00:34:57.628Z,79.42
2023-04-09T00:37:28.171Z,79.55
2023-04-09T00:39:59.165Z,80.22
2023-04-09T00:42:34.335Z,79.61
2023-04-09T00:45:05.462Z,79.09
2023-04-09T00:47:36.261Z,79.38
2023-04-09T00:50:05.891Z,79.85
2023-04-09T00:52:36.793Z,78.89
2023-04-09T00:55:08.856Z,79.75
2023-04-09T00:57:40.236Z,79.48
2023-04-09T01:00:13.438Z,80.71
2023-04-09T01:02:43.525Z,80.63
2023-04-09T01:05:15.001Z,81.12
2023-04-09T01:07:56.629Z,81.74
2023-04-09T01:10:35.070Z,80.83
2023-04-09T01:13:10.976Z,81.38
2023-04-09T01:15:49.395Z,81.34
2023-04-09T01:18:27.589Z,80.27
2023-04-09T01:21:03.477Z,80.25
2023-04-09T01:23:45.705Z,80.75
2023-04-09T01:26:23.906Z,80.30
2023-04-09T01:28:56.068Z,81.22
2023-04-09T01:31:29.759Z,80.81
2023-04-09T01:33:58.973Z,80.82
2023-04-09T01:36:28.480Z,80.57
2023-04-09T01:38:58.164Z,80.95
2023-04-09T01:41:27.460Z,80.78
2023-04-09T01:43:57.573Z,80.62
2023-04-09T01:46:27.457Z,79.96
2023-04-09T01:48:56.888Z,80.65
2023-04-09T01:51:28.433Z,79.97
2023-04-09T01:53:59.896Z,80.68
2023-04-09T01:56:31.147Z,80.46
2023-04-09T01:59:02.771Z,79.80
2023-04-09T02:01:39.453Z,80.65
2023-04-09T02:04:13.706Z,80.35
2023-04-09T02:06:51.535Z,81.13
2023-04-09T02:09:23.188Z,80.65
2023-04-09T02:11:55.222Z,81.18
2023-04-09T02:14:27.872Z,81.20
2023-04-09T02:16:59.781Z,80.88
2023-04-09T02:19:41.056Z,80.99
2023-04-09T02:22:12.757Z,81.81
2023-04-09T02:24:42.881Z,81.67
2023-04-09T02:27:13.132Z,82.23
2023-04-09T02:29:45.610Z,81.70
2023-04-09T02:32:15.935Z,81.65
2023-04-09T02:34:46.753Z,81.65
2023-04-09T02:37:16.939Z,82.29
2023-04-09T02:39:46.916Z,81.68
2023-04-09T02:42:17.538Z,81.79
2023-04-09T02:44:49.354Z,81.36
2023-04-09T02:47:19.789Z,82.37
2023-04-09T02:49:49.558Z,82.40
2023-04-09T02:52:20.895Z,81.97
2023-04-09T02:54:50.816Z,81.81
2023-04-09T02:57:20.592Z,82.06
2023-04-09T02:59:51.309Z,82.13
2023-04-09T03:02:21.853Z,82.24
2023-04-09T03:04:51.737Z,82.17
2023-04-09T03:07:22.234Z,82.48
2023-04-09T03:09:51.911Z,81.47
2023-04-09T03:12:21.346Z,82.81
2023-04-09T03:14:52.777Z,82.15
2023-04-09T03:17:22.790Z,81.93
2023-04-09T03:19:52.649Z,82.39
2023-04-09T03:22:21.695Z,82.98
2023-04-09T03:24:49.772Z,82.43
2023-04-09T03:27:19.183Z,82.09
2023-04-09T03:29:47.319Z,82.29
2023-04-09T03:32:18.993Z,82.83
2023-04-09T03:34:50.064Z,82.43
2023-04-09T03:37:19.559Z,82.19
2023-04-09T03:39:51.023Z,81.98
2023-04-09T03:42:22.122Z,82.16
2023-04-09T03:44:53.059Z,82.11
2023-04-09T03:47:24.726Z,82.03
2023-04-09T03:49:55.116Z,82.08
2023-04-09T03:52:26.004Z,82.02
2023-04-09T03:54:56.771Z,82.74
2023-04-09T03:57:26.607Z,82.68
2023-04-09T03:59:58.418Z,83.38
2023-04-09T04:02:30.543Z,83.39
2023-04-09T04:04:58.754Z,82.49
2023-04-09T04:07:27.190Z,83.62
2023-04-09T04:09:56.100Z,82.37
2023-04-09T04:12:24.288Z,82.12
2023-04-09T04:14:54.032Z,82.41
2023-04-09T04:17:22.008Z,82.68
2023-04-09T04:19:51.459Z,83.06
2023-04-09T04:22:19.542Z,83.50
2023-04-09T04:24:47.639Z,83.37
2023-04-09T04:27:16.020Z,83.33
2023-04-09T04:29:44.045Z,83.82
2023-04-09T04:32:12.022Z,82.95
2023-04-09T04:34:40.102Z,83.51
2023-04-09T04:37:10.210Z,82.70
2023-04-09T04:39:38.244Z,83.18
2023-04-09T04:42:06.219Z,82.45
2023-04-09T04:44:34.153Z,82.62
2023-04-09T04:47:02.235Z,82.19
2023-04-09T04:49:33.134Z,82.14
2023-04-09T04:52:05.126Z,82.81
2023-04-09T04:54:36.856Z,82.91
2023-04-09T04:57:08.842Z,82.32
2023-04-09T04:59:41.034Z,82.03
2023-04-09T05:02:12.001Z,83.11
2023-04-09T05:04:42.420Z,82.37
2023-04-09T05:07:14.666Z,83.51
2023-04-09T05:09:49.367Z,83.12
2023-04-09T05:12:20.838Z,82.62
2023-04-09T05:14:50.984Z,82.22
2023-04-09T05:17:25.004Z,82.66
2023-04-09T05:19:58.251Z,82.45
2023-04-09T05:22:28.695Z,81.50
2023-04-09T05:25:00.302Z,83.18
2023-04-09T05:27:30.798Z,83.19
2023-04-09T05:30:03.456Z,82.83
2023-04-09T05:32:34.177Z,83.18
2023-04-09T05:35:03.504Z,82.84
2023-04-09T05:37:34.245Z,82.25
2023-04-09T05:40:03.945Z,82.65
2023-04-09T05:42:32.236Z,83.72
2023-04-09T05:45:00.919Z,83.21
2023-04-09T05:47:29.436Z,83.32
2023-04-09T05:49:57.465Z,82.37
2023-04-09T05:52:25.732Z,82.80
2023-04-09T05:54:53.715Z,83.05
2023-04-09T05:57:23.197Z,82.33
2023-04-09T05:59:51.245Z,82.08
2023-04-09T06:02:19.336Z,81.07
2023-04-09T06:04:51.283Z,80.89
2023-04-09T06:07:19.623Z,81.09
2023-04-09T06:09:47.959Z,79.76
2023-04-09T06:12:18.533Z,79.63
2023-04-09T06:14:53.792Z,79.55
2023-04-09T06:17:26.264Z,80.24
2023-04-09T06:19:57.701Z,79.73
2023-04-09T06:22:27.222Z,79.18
2023-04-09T06:24:58.258Z,79.36
2023-04-09T06:27:28.892Z,79.59
2023-04-09T06:30:02.423Z,79.60
2023-04-09T06:32:37.690Z,78.51
2023-04-09T06:35:14.419Z,78.91
2023-04-09T06:37:44.517Z,78.24
2023-04-09T06:40:15.520Z,77.73
2023-04-09T06:42:45.827Z,76.94
2023-04-09T06:45:18.205Z,75.47
2023-04-09T06:47:49.155Z,74.64
2023-04-09T06:50:19.042Z,74.05
2023-04-09T06:52:49.715Z,72.16
2023-04-09T06:55:20.356Z,71.84
2023-04-09T06:57:52.412Z,69.78
2023-04-09T07:00:24.653Z,70.13
2023-04-09T07:02:55.858Z,69.39
2023-04-09T07:05:26.988Z,68.26
2023-04-09T07:08:00.526Z,67.91
2023-04-09T07:10:29.553Z,66.84
2023-04-09T07:12:57.560Z,66.04
2023-04-09T07:15:27.118Z,64.19
2023-04-09T07:17:55.248Z,62.90
2023-04-09T07:20:23.278Z,61.75
2023-04-09T07:22:51.268Z,62.27
2023-04-09T07:25:19.422Z,62.07
2023-04-09T07:27:47.372Z,61.78
2023-04-09T07:30:16.052Z,61.83
2023-04-09T07:32:45.415Z,60.43
2023-04-09T07:35:13.570Z,60.50
2023-04-09T07:37:41.536Z,61.09
2023-04-09T07:40:10.329Z,61.59
2023-04-09T07:42:39.130Z,60.82
2023-04-09T07:45:08.385Z,60.19
2023-04-09T07:47:36.529Z,58.31
2023-04-09T07:50:06.709Z,57.30
2023-04-09T07:52:34.668Z,57.42
2023-04-09T07:55:02.613Z,57.51
2023-04-09T07:57:33.038Z,57.11
2023-04-09T08:00:01.658Z,58.06
2023-04-09T08:02:30.282Z,58.33
2023-04-09T08:04:59.295Z,57.81
2023-04-09T08:07:28.834Z,56.10
2023-04-09T08:09:56.797Z,55.27
2023-04-09T08:12:24.762Z,55.22
2023-04-09T08:14:52.894Z,53.97
2023-04-09T08:17:20.829Z,54.98
2023-04-09T08:19:49.610Z,54.36
2023-04-09T08:22:17.627Z,54.66
2023-04-09T08:24:52.619Z,53.93
2023-04-09T08:27:23.444Z,53.96
2023-04-09T08:29:51.886Z,52.66
2023-04-09T08:32:20.052Z,51.59
2023-04-09T08:34:48.247Z,51.48
2023-04-09T08:37:16.780Z,52.62
2023-04-09T08:39:46.466Z,51.81
2023-04-09T08:42:16.398Z,52.67
2023-04-09T08:44:45.231Z,49.80
2023-04-09T08:47:13.389Z,50.77
2023-04-09T08:49:42.002Z,49.55
2023-04-09T08:52:19.661Z,49.90
2023-04-09T08:54:59.654Z,48.76
2023-04-09T08:58:13.781Z,49.53
2023-04-09T09:01:19.006Z,47.34
2023-04-09T09:04:17.275Z,47.83
2023-04-09T09:07:40.047Z,47.67
2023-04-09T09:10:15.830Z,48.21
2023-04-09T09:13:07.545Z,48.31
2023-04-09T09:15:40.977Z,48.12
2023-04-09T09:18:14.652Z,47.28
2023-04-09T09:20:52.053Z,47.32
2023-04-09T09:23:57.954Z,46.91
2023-04-09T09:27:24.834Z,47.75
2023-04-09T09:33:21.335Z,49.00
2023-04-09T09:36:04.174Z,47.94
2023-04-09T09:39:06.394Z,46.05
2023-04-09T09:42:09.085Z,46.08
2023-04-09T09:45:40.703Z,45.86
2023-04-09T09:48:25.762Z,46.69
2023-04-09T09:50:58.947Z,47.54
2023-04-09T09:53:35.633Z,46.99
2023-04-09T09:56:33.592Z,47.01
2023-04-09T09:59:24.224Z,48.22
2023-04-09T10:02:04.438Z,47.56
2023-04-09T10:04:41.652Z,47.62
2023-04-09T10:07:13.839Z,47.59
2023-04-09T10:10:01.659Z,46.61
2023-04-09T10:13:54.730Z,45.64
2023-04-09T10:17:01.252Z,44.24
2023-04-09T10:19:48.938Z,42.94
2023-04-09T10:25:57.691Z,42.41
2023-04-09T10:28:42.911Z,42.50
2023-04-09T10:31:12.003Z,42.80
2023-04-09T10:33:48.675Z,43.13
2023-04-09T10:36:50.766Z,43.55
2023-04-09T10:43:56.944Z,44.10
2023-04-09T10:47:48.420Z,42.56
2023-04-09T10:50:47.630Z,44.72
2023-04-09T10:53:37.310Z,41.83
2023-04-09T10:56:22.805Z,42.78
2023-04-09T10:59:19.551Z,42.21
2023-04-09T11:02:02.319Z,43.84
2023-04-09T11:04:42.777Z,41.60
2023-04-09T11:07:34.303Z,42.88
2023-04-09T11:10:06.833Z,43.39
2023-04-09T11:12:35.840Z,43.47
2023-04-09T11:15:26.977Z,44.05
2023-04-09T11:18:02.480Z,41.70
2023-04-09T11:20:34.859Z,41.54
2023-04-09T11:23:22.464Z,42.34
2023-04-09T11:25:56.632Z,41.44
2023-04-09T11:28:27.821Z,42.01
2023-04-09T11:31:08.408Z,42.54
2023-04-09T11:33:47.463Z,42.07
2023-04-09T11:36:19.843Z,41.43
2023-04-09T11:39:18.596Z,41.27
2023-04-09T11:41:56.180Z,42.69
2023-04-09T11:44:24.490Z,41.99
2023-04-09T11:46:54.310Z,43.01
2023-04-09T11:49:23.688Z,43.50
2023-04-09T11:52:01.196Z,42.88
2023-04-09T11:54:33.133Z,43.52
2023-04-09T11:57:04.856Z,44.24
2023-04-09T11:59:33.159Z,42.85
2023-04-09T12:02:01.910Z,42.46
2023-04-09T12:04:30.169Z,41.38
2023-04-09T12:06:59.061Z,40.42
2023-04-09T12:09:27.222Z,42.11
2023-04-09T12:11:56.948Z,42.02
2023-04-09T12:14:26.618Z,41.32
2023-04-09T12:16:55.054Z,42.72
2023-04-09T12:19:28.060Z,42.34
2023-04-09T12:21:58.462Z,38.44
2023-04-09T12:24:28.165Z,38.83
2023-04-09T12:26:57.273Z,38.24
2023-04-09T12:29:33.740Z,38.22
2023-04-09T12:32:02.736Z,37.30
2023-04-09T12:34:31.776Z,36.60
2023-04-09T12:37:04.012Z,35.79
2023-04-09T12:39:35.763Z,36.12
2023-04-09T12:42:07.952Z,35.26
2023-04-09T12:44:47.833Z,36.13
2023-04-09T12:47:16.713Z,35.14
2023-04-09T12:49:46.758Z,34.86
2023-04-09T12:52:14.784Z,34.30
2023-04-09T12:54:42.824Z,35.35
2023-04-09T12:57:11.244Z,35.30
2023-04-09T12:59:40.667Z,34.07
2023-04-09T13:02:09.201Z,34.98
2023-04-09T13:04:37.453Z,34.16
2023-04-09T13:07:05.693Z,35.49
2023-04-09T13:09:34.150Z,35.65
2023-04-09T13:12:02.159Z,35.48
2023-04-09T13:14:30.819Z,35.39
2023-04-09T13:17:00.384Z,36.19
2023-04-09T13:19:28.467Z,36.55
2023-04-09T13:21:56.474Z,36.09
2023-04-09T13:24:24.741Z,37.48
2023-04-09T13:26:52.915Z,37.47
2023-04-09T13:29:21.381Z,37.46
2023-04-09T13:31:50.388Z,36.16
2023-04-09T13:34:19.745Z,37.60
2023-04-09T13:36:47.580Z,37.23
2023-04-09T13:39:15.584Z,38.23
2023-04-09T13:41:43.514Z,38.38
2023-04-09T13:44:12.444Z,38.46
2023-04-09T13:46:41.142Z,38.93
2023-04-09T13:49:09.244Z,38.72
2023-04-09T13:51:38.831Z,38.80
2023-04-09T13:54:08.134Z,39.58
2023-04-09T13:56:36.128Z,39.05
2023-04-09T13:59:04.425Z,39.62
2023-04-09T14:01:32.745Z,39.55
2023-04-09T14:04:02.629Z,39.34
2023-04-09T14:06:34.377Z,39.41
2023-04-09T14:09:06.585Z,39.52
2023-04-09T14:11:37.262Z,39.17
2023-04-09T14:14:07.122Z,39.49
2023-04-09T14:16:37.926Z,39.26
2023-04-09T14:19:08.311Z,39.39
2023-04-09T14:21:37.444Z,39.29
2023-04-09T14:24:09.493Z,40.19
2023-04-09T14:26:38.990Z,39.01
2023-04-09T14:29:08.850Z,39.91
2023-04-09T14:31:38.583Z,38.71
2023-04-09T14:34:08.583Z,37.72
2023-04-09T14:36:38.124Z,37.96
2023-04-09T14:39:10.215Z,37.06
2023-04-09T14:41:41.648Z,36.96
2023-04-09T14:44:12.038Z,36.57
2023-04-09T14:46:41.344Z,36.91
2023-04-09T14:49:11.014Z,36.75
2023-04-09T14:51:40.802Z,36.14
2023-04-09T14:54:12.175Z,36.29
2023-04-09T14:56:41.459Z,36.39
2023-04-09T14:59:12.051Z,36.68
2023-04-09T15:01:41.822Z,35.26
2023-04-09T15:04:12.611Z,36.13
2023-04-09T15:06:42.670Z,35.34
2023-04-09T15:09:14.523Z,36.69
2023-04-09T15:11:45.073Z,36.12
2023-04-09T15:14:14.217Z,36.05
2023-04-09T15:16:44.320Z,36.81
2023-04-09T15:19:13.641Z,36.66
2023-04-09T15:21:43.789Z,35.95
2023-04-09T15:24:16.308Z,36.10
2023-04-09T15:26:45.982Z,36.36
2023-04-09T15:29:15.826Z,35.54
2023-04-09T15:31:45.729Z,35.93
2023-04-09T15:34:16.107Z,36.61
2023-04-09T15:36:47.804Z,36.15
2023-04-09T15:39:18.946Z,36.86
2023-04-09T15:41:48.788Z,36.71
2023-04-09T15:44:18.920Z,36.20
2023-04-09T15:46:48.959Z,36.95
2023-04-09T15:49:20.036Z,36.71
2023-04-09T15:51:52.260Z,37.16
2023-04-09T15:54:24.020Z,36.46
2023-04-09T15:56:53.723Z,37.38
2023-04-09T15:59:24.665Z,37.59
2023-04-09T16:01:55.879Z,37.55
2023-04-09T16:04:24.338Z,37.31
2023-04-09T16:06:52.288Z,35.96
2023-04-09T16:09:20.327Z,36.49
2023-04-09T16:11:49.807Z,37.96
2023-04-09T16:14:18.005Z,38.42
2023-04-09T16:16:49.689Z,37.55
2023-04-09T16:19:18.446Z,38.02
2023-04-09T16:21:46.964Z,38.27
2023-04-09T16:24:15.711Z,37.46
2023-04-09T16:26:44.715Z,38.49
2023-04-09T16:29:16.286Z,37.57
2023-04-09T16:31:44.529Z,38.03
2023-04-09T16:34:14.919Z,38.20
2023-04-09T16:36:45.888Z,38.26
2023-04-09T16:39:15.311Z,37.92
2023-04-09T16:41:45.123Z,39.19
2023-04-09T16:44:14.741Z,39.18
2023-04-09T16:46:43.608Z,39.18
2023-04-09T16:49:11.587Z,39.09
2023-04-09T16:51:39.679Z,39.26
2023-04-09T16:54:08.202Z,39.59
2023-04-09T16:56:36.282Z,39.58
2023-04-09T16:59:04.452Z,39.91
2023-04-09T17:01:35.021Z,38.65
2023-04-09T17:04:03.426Z,38.82
2023-04-09T17:06:33.956Z,39.13
2023-04-09T17:09:13.700Z,38.39
2023-04-09T17:11:50.413Z,39.29
2023-04-09T17:14:18.751Z,39.21
2023-04-09T17:16:53.986Z,39.67
2023-04-09T17:19:25.930Z,39.78
2023-04-09T17:21:57.286Z,39.99
2023-04-09T17:24:27.070Z,40.59
2023-04-09T17:27:01.699Z,40.86
2023-04-09T17:29:31.293Z,41.31
2023-04-09T17:32:00.986Z,42.16
2023-04-09T17:34:29.672Z,41.94
2023-04-09T17:37:00.264Z,42.25
2023-04-09T17:39:32.507Z,43.00
2023-04-09T17:42:00.919Z,42.40
2023-04-09T17:44:31.584Z,42.73
2023-04-09T17:47:01.591Z,42.61
2023-04-09T17:49:31.941Z,42.98
2023-04-09T17:52:00.298Z,43.46
2023-04-09T17:54:32.808Z,43.92
2023-04-09T17:57:01.118Z,43.86
2023-04-09T17:59:29.550Z,44.26
2023-04-09T18:02:01.494Z,44.46
2023-04-09T18:04:35.012Z,45.09
2023-04-09T18:07:03.938Z,45.36
2023-04-09T18:09:39.212Z,45.30
2023-04-09T18:12:07.578Z,45.43
2023-04-09T18:14:35.775Z,45.86
2023-04-09T18:17:03.903Z,46.06
2023-04-09T18:19:33.457Z,46.03
2023-04-09T18:22:01.766Z,46.68
2023-04-09T18:24:30.343Z,47.35
2023-04-09T18:27:02.880Z,47.24
2023-04-09T18:29:33.140Z,47.15
2023-04-09T18:32:01.594Z,47.50
2023-04-09T18:34:30.809Z,47.93
2023-04-09T18:37:00.682Z,47.97
2023-04-09T18:39:30.843Z,47.55
2023-04-09T18:41:59.034Z,47.93
2023-04-09T18:44:27.741Z,48.54
2023-04-09T18:46:57.924Z,48.40
2023-04-09T18:49:30.158Z,48.71
2023-04-09T18:52:01.186Z,49.25
2023-04-09T18:54:34.982Z,50.15
2023-04-09T18:57:04.406Z,49.97
2023-04-09T18:59:35.221Z,50.05
2023-04-09T19:02:05.109Z,50.85
2023-04-09T19:04:36.412Z,50.71
2023-04-09T19:07:04.922Z,51.09
2023-04-09T19:09:34.952Z,51.15
2023-04-09T19:12:03.216Z,51.00
2023-04-09T19:14:32.593Z,50.84
2023-04-09T19:17:05.317Z,51.23
2023-04-09T19:19:35.156Z,51.42
2023-04-09T19:22:49.280Z,51.71
2023-04-09T19:25:19.729Z,52.21
2023-04-09T19:27:47.773Z,52.34
2023-04-09T19:30:16.576Z,52.47
2023-04-09T19:32:46.569Z,53.07
2023-04-09T19:35:14.712Z,54.20
2023-04-09T19:37:43.059Z,53.82
2023-04-09T19:40:13.098Z,54.91
2023-04-09T19:42:42.619Z,54.73
2023-04-09T19:45:11.380Z,53.99
2023-04-09T19:47:40.042Z,54.42
2023-04-09T19:50:08.792Z,54.01
2023-04-09T19:52:37.848Z,53.89
2023-04-09T19:55:08.004Z,54.38
2023-04-09T19:57:36.181Z,54.38
2023-04-09T20:00:07.272Z,54.54
2023-04-09T20:02:37.776Z,55.39
2023-04-09T20:05:06.849Z,55.75
2023-04-09T20:07:35.037Z,56.52
2023-04-09T20:10:03.139Z,55.61
2023-04-09T20:12:31.277Z,55.43
2023-04-09T20:14:59.594Z,55.43
2023-04-09T20:17:29.763Z,56.25
2023-04-09T20:19:57.837Z,56.84
2023-04-09T20:22:25.849Z,57.36
2023-04-09T20:24:55.543Z,57.83
2023-04-09T20:27:23.880Z,57.33
2023-04-09T20:29:52.999Z,57.36
2023-04-09T20:32:21.499Z,57.42
2023-04-09T20:34:53.716Z,58.09
2023-04-09T20:37:22.267Z,57.75
2023-04-09T20:39:52.710Z,58.45
2023-04-09T20:42:20.825Z,58.58
2023-04-09T20:44:48.910Z,59.34
2023-04-09T20:47:17.050Z,60.05
2023-04-09T20:49:47.516Z,60.58
2023-04-09T20:52:17.201Z,60.26
2023-04-09T20:54:45.461Z,60.73
2023-04-09T20:57:15.206Z,60.64
2023-04-09T20:59:43.182Z,61.92
2023-04-09T21:02:13.683Z,61.94
2023-04-09T21:04:41.924Z,61.47
2023-04-09T21:07:09.924Z,61.22
2023-04-09T21:09:39.927Z,61.90
2023-04-09T21:12:07.909Z,62.33
2023-04-09T21:14:35.898Z,61.81
2023-04-09T21:17:03.946Z,62.25
2023-04-09T21:19:31.974Z,62.04
2023-04-09T21:22:00.494Z,59.74
2023-04-09T21:24:28.743Z,59.00
2023-04-09T21:26:58.775Z,59.84
2023-04-09T21:29:27.483Z,59.76
2023-04-09T21:31:55.544Z,59.77
2023-04-09T21:34:23.466Z,60.81
2023-04-09T21:36:51.519Z,61.29
2023-04-09T21:39:19.592Z,61.48
2023-04-09T21:41:48.099Z,61.29
2023-04-09T21:44:17.481Z,60.19
2023-04-09T21:46:46.272Z,60.80
2023-04-09T21:49:14.291Z,60.32
2023-04-09T21:51:42.809Z,61.62
2023-04-09T21:54:11.666Z,61.08
2023-04-09T21:56:40.123Z,61.77
2023-04-09T21:59:08.073Z,62.01
2023-04-09T22:01:37.959Z,62.25
2023-04-09T22:04:06.071Z,61.84
2023-04-09T22:06:34.139Z,61.82
2023-04-09T22:09:02.441Z,61.61
2023-04-09T22:11:30.597Z,61.66
2023-04-09T22:13:58.946Z,62.03
2023-04-09T22:16:27.496Z,62.39
2023-04-09T22:18:57.609Z,62.28
2023-04-09T22:21:26.609Z,62.86
2023-04-09T22:23:54.782Z,62.50
2023-04-09T22:26:23.082Z,63.06
2023-04-09T22:28:51.611Z,63.11
2023-04-09T22:31:19.945Z,63.22
2023-04-09T22:33:47.941Z,64.04
2023-04-09T22:36:17.319Z,63.94
2023-04-09T22:38:45.777Z,64.12
2023-04-09T22:41:13.726Z,63.01
2023-04-09T22:43:41.643Z,63.29
2023-04-09T22:46:09.647Z,64.07
2023-04-09T22:48:44.027Z,64.11
2023-04-09T22:51:13.075Z,63.23
2023-04-09T22:53:42.873Z,63.87
2023-04-09T22:56:11.209Z,63.54
2023-04-09T22:58:40.070Z,63.60
2023-04-09T23:01:08.958Z,63.27
2023-04-09T23:03:37.220Z,63.58
2023-04-09T23:06:05.570Z,64.00
2023-04-09T23:08:34.056Z,63.14
2023-04-09T23:11:05.405Z,63.96
2023-04-09T23:13:33.629Z,63.48
2023-04-09T23:16:01.733Z,62.82
2023-04-09T23:18:29.966Z,63.39
2023-04-09T23:20:58.193Z,63.75
2023-04-09T23:23:26.606Z,62.90
2023-04-09T23:25:55.434Z,62.71
2023-04-09T23:28:25.052Z,63.85
2023-04-09T23:30:53.579Z,63.55
2023-04-09T23:33:22.713Z,63.22
2023-04-09T23:35:51.171Z,63.05
2023-04-09T23:38:19.329Z,63.23
2023-04-09T23:40:48.245Z,63.67
2023-04-09T23:43:16.587Z,63.33
2023-04-09T23:45:46.587Z,63.90
2023-04-09T23:48:14.602Z,63.64
2023-04-09T23:50:43.423Z,64.17
2023-04-09T23:53:11.547Z,64.80
2023-04-09T23:55:41.529Z,64.05
2023-04-09T23:58:10.498Z,64.31
